Grover, Missouri
Current Conditions -  °F | °C
As of 1:54 PM on Friday 31 Oct 2014 (Local Time) from KSUS Reporting Station
Clear Clear  
Wind Chill: 37°   Ceiling: Unl
Heat Index: 45°   Visibility: 10mi
Dew Point: 24°   Wind: 20mph
Humidity: 44%   Direction: 340°NNW
Pressure: 30.3"   Gusts: 29mph
Location:  38.58°N, 90.64°W
Report Text: KSUS 311854Z 34017G25KT 10SM CLR 07/M04 A3030 RMK AO2 SLP264 T00721044
Loading
Personal Weather Stations






























Interactive Weather Map
Tropical Storm Tracking
New forecast layout! Learn more

10-Day Weather Forecast

Advertisements
Track Severe Weather on mobile